sensor_id;sensor_type;location;lat;lon;timestamp;P1;durP1;ratioP1;P2;durP2;ratioP2
64887;SDS011;51386;53.082;8.816;2024-01-10T00:00:03;13.83;;;9.13;;
64887;SDS011;51386;53.082;8.816;2024-01-10T00:02:32;13.20;;;8.83;;
64887;SDS011;51386;53.082;8.816;2024-01-10T00:05:00;15.07;;;9.63;;
64887;SDS011;51386;53.082;8.816;2024-01-10T00:07:29;14.10;;;8.50;;
64887;SDS011;51386;53.082;8.816;2024-01-10T00:09:57;15.00;;;8.87;;
64887;SDS011;51386;53.082;8.816;2024-01-10T00:12:28;12.57;;;9.00;;
64887;SDS011;51386;53.082;8.816;2024-01-10T00:15:03;12.87;;;9.70;;
64887;SDS011;51386;53.082;8.816;2024-01-10T00:17:32;11.47;;;8.03;;
64887;SDS011;51386;53.082;8.816;2024-01-10T00:20:01;13.27;;;9.10;;
64887;SDS011;51386;53.082;8.816;2024-01-10T00:22:29;15.13;;;9.87;;
64887;SDS011;51386;53.082;8.816;2024-01-10T00:24:58;13.83;;;9.80;;
64887;SDS011;51386;53.082;8.816;2024-01-10T00:27:26;13.77;;;8.60;;
64887;SDS011;51386;53.082;8.816;2024-01-10T00:29:55;13.13;;;9.07;;
64887;SDS011;51386;53.082;8.816;2024-01-10T00:32:24;13.40;;;8.90;;
64887;SDS011;51386;53.082;8.816;2024-01-10T00:34:53;14.10;;;9.40;;
64887;SDS011;51386;53.082;8.816;2024-01-10T00:37:21;11.70;;;8.50;;
64887;SDS011;51386;53.082;8.816;2024-01-10T00:39:49;12.60;;;8.47;;
64887;SDS011;51386;53.082;8.816;2024-01-10T00:42:18;14.63;;;9.37;;
64887;SDS011;51386;53.082;8.816;2024-01-10T00:44:46;12.73;;;8.73;;
64887;SDS011;51386;53.082;8.816;2024-01-10T00:47:15;16.13;;;10.07;;
64887;SDS011;51386;53.082;8.816;2024-01-10T00:49:43;11.53;;;9.37;;
64887;SDS011;51386;53.082;8.816;2024-01-10T00:52:12;12.63;;;9.00;;
64887;SDS011;51386;53.082;8.816;2024-01-10T00:54:40;14.93;;;9.90;;
64887;SDS011;51386;53.082;8.816;2024-01-10T00:57:09;13.27;;;9.73;;
64887;SDS011;51386;53.082;8.816;2024-01-10T00:59:38;13.00;;;9.53;;
64887;SDS011;51386;53.082;8.816;2024-01-10T01:02:06;16.67;;;9.93;;
64887;SDS011;51386;53.082;8.816;2024-01-10T01:04:35;14.23;;;9.97;;
64887;SDS011;51386;53.082;8.816;2024-01-10T01:07:03;15.50;;;9.83;;
64887;SDS011;51386;53.082;8.816;2024-01-10T01:09:31;12.20;;;9.67;;
64887;SDS011;51386;53.082;8.816;2024-01-10T01:12:01;13.73;;;10.03;;
64887;SDS011;51386;53.082;8.816;2024-01-10T01:14:30;15.07;;;9.57;;
64887;SDS011;51386;53.082;8.816;2024-01-10T01:16:58;14.47;;;9.13;;
64887;SDS011;51386;53.082;8.816;2024-01-10T01:19:26;16.17;;;10.57;;
64887;SDS011;51386;53.082;8.816;2024-01-10T01:21:55;16.73;;;9.77;;
64887;SDS011;51386;53.082;8.816;2024-01-10T01:24:23;13.53;;;9.47;;
64887;SDS011;51386;53.082;8.816;2024-01-10T01:26:52;14.43;;;10.17;;
64887;SDS011;51386;53.082;8.816;2024-01-10T01:29:20;13.40;;;8.87;;
64887;SDS011;51386;53.082;8.816;2024-01-10T01:31:49;13.93;;;10.03;;
64887;SDS011;51386;53.082;8.816;2024-01-10T01:34:18;15.23;;;10.13;;
64887;SDS011;51386;53.082;8.816;2024-01-10T01:36:46;16.80;;;10.80;;
64887;SDS011;51386;53.082;8.816;2024-01-10T01:39:15;12.57;;;10.27;;
64887;SDS011;51386;53.082;8.816;2024-01-10T01:41:43;13.70;;;10.20;;
64887;SDS011;51386;53.082;8.816;2024-01-10T01:44:12;15.27;;;9.97;;
64887;SDS011;51386;53.082;8.816;2024-01-10T01:46:40;17.53;;;11.20;;
64887;SDS011;51386;53.082;8.816;2024-01-10T01:49:10;15.13;;;10.43;;
64887;SDS011;51386;53.082;8.816;2024-01-10T01:51:39;13.37;;;9.77;;
64887;SDS011;51386;53.082;8.816;2024-01-10T01:54:08;17.63;;;10.70;;
64887;SDS011;51386;53.082;8.816;2024-01-10T01:56:37;14.03;;;9.93;;
64887;SDS011;51386;53.082;8.816;2024-01-10T01:59:07;13.97;;;9.87;;
64887;SDS011;51386;53.082;8.816;2024-01-10T02:01:36;14.10;;;10.00;;
64887;SDS011;51386;53.082;8.816;2024-01-10T02:04:04;14.53;;;9.70;;
64887;SDS011;51386;53.082;8.816;2024-01-10T02:06:33;15.37;;;10.03;;
64887;SDS011;51386;53.082;8.816;2024-01-10T02:09:02;13.77;;;9.93;;
64887;SDS011;51386;53.082;8.816;2024-01-10T02:11:31;14.57;;;9.73;;
64887;SDS011;51386;53.082;8.816;2024-01-10T02:13:59;15.30;;;10.33;;
64887;SDS011;51386;53.082;8.816;2024-01-10T02:16:28;13.20;;;10.00;;
64887;SDS011;51386;53.082;8.816;2024-01-10T02:18:56;14.80;;;10.40;;
64887;SDS011;51386;53.082;8.816;2024-01-10T02:21:25;16.17;;;10.57;;
64887;SDS011;51386;53.082;8.816;2024-01-10T02:23:53;14.30;;;9.17;;
64887;SDS011;51386;53.082;8.816;2024-01-10T02:26:22;14.70;;;10.17;;
64887;SDS011;51386;53.082;8.816;2024-01-10T02:28:50;15.40;;;11.03;;
64887;SDS011;51386;53.082;8.816;2024-01-10T02:31:18;14.43;;;9.53;;
64887;SDS011;51386;53.082;8.816;2024-01-10T02:33:47;13.57;;;10.07;;
64887;SDS011;51386;53.082;8.816;2024-01-10T02:36:15;14.07;;;9.67;;
64887;SDS011;51386;53.082;8.816;2024-01-10T02:38:43;15.13;;;10.57;;
64887;SDS011;51386;53.082;8.816;2024-01-10T02:41:12;16.63;;;11.10;;
64887;SDS011;51386;53.082;8.816;2024-01-10T02:43:40;13.80;;;10.07;;
64887;SDS011;51386;53.082;8.816;2024-01-10T02:46:09;13.80;;;9.57;;
64887;SDS011;51386;53.082;8.816;2024-01-10T02:48:37;14.73;;;10.57;;
64887;SDS011;51386;53.082;8.816;2024-01-10T02:51:06;15.33;;;10.67;;
64887;SDS011;51386;53.082;8.816;2024-01-10T02:53:34;13.77;;;10.17;;
64887;SDS011;51386;53.082;8.816;2024-01-10T02:56:02;13.97;;;10.43;;
64887;SDS011;51386;53.082;8.816;2024-01-10T02:58:31;14.23;;;10.43;;
64887;SDS011;51386;53.082;8.816;2024-01-10T03:01:00;12.57;;;9.53;;
64887;SDS011;51386;53.082;8.816;2024-01-10T03:03:29;15.87;;;10.10;;
64887;SDS011;51386;53.082;8.816;2024-01-10T03:05:57;13.30;;;10.07;;
64887;SDS011;51386;53.082;8.816;2024-01-10T03:08:25;14.30;;;9.73;;
64887;SDS011;51386;53.082;8.816;2024-01-10T03:10:54;13.87;;;10.60;;
64887;SDS011;51386;53.082;8.816;2024-01-10T03:13:22;15.40;;;9.93;;
64887;SDS011;51386;53.082;8.816;2024-01-10T03:15:51;14.07;;;10.50;;
64887;SDS011;51386;53.082;8.816;2024-01-10T03:18:19;14.07;;;10.83;;
64887;SDS011;51386;53.082;8.816;2024-01-10T03:20:48;16.03;;;11.10;;
64887;SDS011;51386;53.082;8.816;2024-01-10T03:23:16;12.93;;;10.50;;
64887;SDS011;51386;53.082;8.816;2024-01-10T03:25:44;15.87;;;10.67;;
64887;SDS011;51386;53.082;8.816;2024-01-10T03:28:16;14.27;;;10.60;;
64887;SDS011;51386;53.082;8.816;2024-01-10T03:30:45;15.87;;;11.03;;
64887;SDS011;51386;53.082;8.816;2024-01-10T03:33:13;17.30;;;11.80;;
64887;SDS011;51386;53.082;8.816;2024-01-10T03:35:43;13.10;;;10.10;;
64887;SDS011;51386;53.082;8.816;2024-01-10T03:38:11;13.53;;;11.00;;
64887;SDS011;51386;53.082;8.816;2024-01-10T03:40:40;14.30;;;10.40;;
64887;SDS011;51386;53.082;8.816;2024-01-10T03:43:08;12.00;;;9.73;;
64887;SDS011;51386;53.082;8.816;2024-01-10T03:45:37;14.50;;;10.60;;
64887;SDS011;51386;53.082;8.816;2024-01-10T03:48:06;13.40;;;9.60;;
64887;SDS011;51386;53.082;8.816;2024-01-10T03:50:35;16.90;;;10.67;;
64887;SDS011;51386;53.082;8.816;2024-01-10T03:53:03;15.70;;;10.83;;
64887;SDS011;51386;53.082;8.816;2024-01-10T03:55:32;19.67;;;12.50;;
64887;SDS011;51386;53.082;8.816;2024-01-10T03:58:00;14.77;;;10.83;;
64887;SDS011;51386;53.082;8.816;2024-01-10T04:00:29;14.13;;;11.00;;
64887;SDS011;51386;53.082;8.816;2024-01-10T04:02:57;14.87;;;11.67;;
64887;SDS011;51386;53.082;8.816;2024-01-10T04:05:26;14.30;;;10.53;;
64887;SDS011;51386;53.082;8.816;2024-01-10T04:07:55;14.77;;;10.83;;
64887;SDS011;51386;53.082;8.816;2024-01-10T04:10:24;15.43;;;11.23;;
64887;SDS011;51386;53.082;8.816;2024-01-10T04:12:53;14.33;;;10.90;;
64887;SDS011;51386;53.082;8.816;2024-01-10T04:15:21;15.57;;;10.67;;
64887;SDS011;51386;53.082;8.816;2024-01-10T04:17:50;13.40;;;10.03;;
64887;SDS011;51386;53.082;8.816;2024-01-10T04:20:18;13.83;;;10.50;;
64887;SDS011;51386;53.082;8.816;2024-01-10T04:22:47;14.77;;;10.07;;
64887;SDS011;51386;53.082;8.816;2024-01-10T04:25:15;16.10;;;10.83;;
64887;SDS011;51386;53.082;8.816;2024-01-10T04:27:44;16.03;;;11.67;;
64887;SDS011;51386;53.082;8.816;2024-01-10T04:30:12;17.50;;;11.30;;
64887;SDS011;51386;53.082;8.816;2024-01-10T04:32:41;15.63;;;10.87;;
64887;SDS011;51386;53.082;8.816;2024-01-10T04:35:09;15.20;;;11.67;;
64887;SDS011;51386;53.082;8.816;2024-01-10T04:37:38;14.43;;;11.70;;
64887;SDS011;51386;53.082;8.816;2024-01-10T04:40:06;16.77;;;10.77;;
64887;SDS011;51386;53.082;8.816;2024-01-10T04:42:36;14.43;;;10.93;;
64887;SDS011;51386;53.082;8.816;2024-01-10T04:45:04;17.83;;;11.37;;
64887;SDS011;51386;53.082;8.816;2024-01-10T04:47:35;14.17;;;11.13;;
64887;SDS011;51386;53.082;8.816;2024-01-10T04:50:03;17.73;;;11.47;;
64887;SDS011;51386;53.082;8.816;2024-01-10T04:52:37;17.10;;;12.03;;
64887;SDS011;51386;53.082;8.816;2024-01-10T04:55:06;16.53;;;11.17;;
64887;SDS011;51386;53.082;8.816;2024-01-10T04:57:35;16.70;;;11.23;;
64887;SDS011;51386;53.082;8.816;2024-01-10T05:00:04;16.97;;;12.30;;
64887;SDS011;51386;53.082;8.816;2024-01-10T05:02:34;14.70;;;11.33;;
64887;SDS011;51386;53.082;8.816;2024-01-10T05:05:02;17.13;;;12.57;;
64887;SDS011;51386;53.082;8.816;2024-01-10T05:07:31;15.17;;;12.23;;
64887;SDS011;51386;53.082;8.816;2024-01-10T05:10:00;17.83;;;12.33;;
64887;SDS011;51386;53.082;8.816;2024-01-10T05:12:28;16.77;;;11.53;;
64887;SDS011;51386;53.082;8.816;2024-01-10T05:14:56;16.90;;;12.10;;
64887;SDS011;51386;53.082;8.816;2024-01-10T05:17:25;16.30;;;11.67;;
64887;SDS011;51386;53.082;8.816;2024-01-10T05:19:53;18.90;;;12.30;;
64887;SDS011;51386;53.082;8.816;2024-01-10T05:22:22;14.53;;;11.73;;
64887;SDS011;51386;53.082;8.816;2024-01-10T05:24:50;17.27;;;12.07;;
64887;SDS011;51386;53.082;8.816;2024-01-10T05:27:19;14.67;;;11.47;;
64887;SDS011;51386;53.082;8.816;2024-01-10T05:29:47;17.30;;;11.50;;
64887;SDS011;51386;53.082;8.816;2024-01-10T05:32:16;17.73;;;12.30;;
64887;SDS011;51386;53.082;8.816;2024-01-10T05:34:44;17.60;;;12.27;;
64887;SDS011;51386;53.082;8.816;2024-01-10T05:37:13;18.47;;;13.03;;
64887;SDS011;51386;53.082;8.816;2024-01-10T05:39:41;17.40;;;11.80;;
64887;SDS011;51386;53.082;8.816;2024-01-10T05:42:09;20.27;;;12.53;;
64887;SDS011;51386;53.082;8.816;2024-01-10T05:44:38;20.43;;;12.47;;
64887;SDS011;51386;53.082;8.816;2024-01-10T05:47:07;13.73;;;10.53;;
64887;SDS011;51386;53.082;8.816;2024-01-10T05:49:36;19.17;;;12.27;;
64887;SDS011;51386;53.082;8.816;2024-01-10T05:52:04;17.73;;;11.33;;
64887;SDS011;51386;53.082;8.816;2024-01-10T05:54:33;19.17;;;13.10;;
64887;SDS011;51386;53.082;8.816;2024-01-10T05:57:01;16.37;;;11.10;;
64887;SDS011;51386;53.082;8.816;2024-01-10T05:59:30;18.73;;;12.00;;
64887;SDS011;51386;53.082;8.816;2024-01-10T06:01:58;18.97;;;11.83;;
64887;SDS011;51386;53.082;8.816;2024-01-10T06:04:26;17.93;;;12.10;;
64887;SDS011;51386;53.082;8.816;2024-01-10T06:06:58;18.37;;;11.97;;
64887;SDS011;51386;53.082;8.816;2024-01-10T06:09:26;15.80;;;10.27;;
64887;SDS011;51386;53.082;8.816;2024-01-10T06:11:55;19.93;;;12.53;;
64887;SDS011;51386;53.082;8.816;2024-01-10T06:14:23;18.03;;;12.03;;
64887;SDS011;51386;53.082;8.816;2024-01-10T06:16:52;17.00;;;11.80;;
64887;SDS011;51386;53.082;8.816;2024-01-10T06:19:22;17.30;;;11.17;;
64887;SDS011;51386;53.082;8.816;2024-01-10T06:21:50;18.63;;;10.73;;
64887;SDS011;51386;53.082;8.816;2024-01-10T06:24:19;19.63;;;11.63;;
64887;SDS011;51386;53.082;8.816;2024-01-10T06:26:48;16.73;;;11.23;;
64887;SDS011;51386;53.082;8.816;2024-01-10T06:29:17;16.63;;;11.50;;
64887;SDS011;51386;53.082;8.816;2024-01-10T06:31:46;15.73;;;10.40;;
64887;SDS011;51386;53.082;8.816;2024-01-10T06:34:15;17.50;;;11.23;;
64887;SDS011;51386;53.082;8.816;2024-01-10T06:36:44;17.80;;;11.53;;
64887;SDS011;51386;53.082;8.816;2024-01-10T06:39:12;15.30;;;11.13;;
64887;SDS011;51386;53.082;8.816;2024-01-10T06:41:40;16.93;;;10.73;;
64887;SDS011;51386;53.082;8.816;2024-01-10T06:44:10;17.30;;;11.53;;
64887;SDS011;51386;53.082;8.816;2024-01-10T06:46:39;16.47;;;10.73;;
64887;SDS011;51386;53.082;8.816;2024-01-10T06:49:07;16.73;;;11.17;;
64887;SDS011;51386;53.082;8.816;2024-01-10T06:51:35;17.93;;;11.50;;
64887;SDS011;51386;53.082;8.816;2024-01-10T06:54:05;14.37;;;9.70;;
64887;SDS011;51386;53.082;8.816;2024-01-10T06:56:34;15.90;;;10.90;;
64887;SDS011;51386;53.082;8.816;2024-01-10T06:59:02;15.40;;;10.63;;
64887;SDS011;51386;53.082;8.816;2024-01-10T07:01:31;15.90;;;10.80;;
64887;SDS011;51386;53.082;8.816;2024-01-10T07:03:59;17.47;;;11.80;;
64887;SDS011;51386;53.082;8.816;2024-01-10T07:06:28;14.93;;;10.57;;
64887;SDS011;51386;53.082;8.816;2024-01-10T07:08:57;14.40;;;10.87;;
64887;SDS011;51386;53.082;8.816;2024-01-10T07:11:31;15.87;;;11.57;;
64887;SDS011;51386;53.082;8.816;2024-01-10T07:14:00;14.00;;;10.60;;
64887;SDS011;51386;53.082;8.816;2024-01-10T07:16:28;16.63;;;11.73;;
64887;SDS011;51386;53.082;8.816;2024-01-10T07:18:59;21.47;;;12.13;;
64887;SDS011;51386;53.082;8.816;2024-01-10T07:21:28;17.60;;;10.97;;
64887;SDS011;51386;53.082;8.816;2024-01-10T07:23:56;18.60;;;11.73;;
64887;SDS011;51386;53.082;8.816;2024-01-10T07:26:24;17.17;;;11.43;;
64887;SDS011;51386;53.082;8.816;2024-01-10T07:28:55;16.07;;;10.93;;
64887;SDS011;51386;53.082;8.816;2024-01-10T07:31:43;16.37;;;10.90;;
64887;SDS011;51386;53.082;8.816;2024-01-10T07:34:11;16.20;;;10.23;;
64887;SDS011;51386;53.082;8.816;2024-01-10T07:36:43;14.47;;;10.57;;
64887;SDS011;51386;53.082;8.816;2024-01-10T07:39:11;16.80;;;11.10;;
64887;SDS011;51386;53.082;8.816;2024-01-10T07:41:43;17.33;;;11.73;;
64887;SDS011;51386;53.082;8.816;2024-01-10T07:44:12;20.00;;;11.67;;
64887;SDS011;51386;53.082;8.816;2024-01-10T07:46:40;17.07;;;11.47;;
64887;SDS011;51386;53.082;8.816;2024-01-10T07:49:09;15.53;;;11.27;;
64887;SDS011;51386;53.082;8.816;2024-01-10T07:51:38;15.80;;;12.07;;
64887;SDS011;51386;53.082;8.816;2024-01-10T07:54:06;19.47;;;12.00;;
64887;SDS011;51386;53.082;8.816;2024-01-10T07:56:35;15.80;;;11.87;;
64887;SDS011;51386;53.082;8.816;2024-01-10T07:59:07;16.23;;;11.60;;
64887;SDS011;51386;53.082;8.816;2024-01-10T08:01:37;18.40;;;11.33;;
64887;SDS011;51386;53.082;8.816;2024-01-10T08:04:16;17.27;;;11.40;;
64887;SDS011;51386;53.082;8.816;2024-01-10T08:06:44;15.83;;;11.40;;
64887;SDS011;51386;53.082;8.816;2024-01-10T08:09:13;21.30;;;13.07;;
64887;SDS011;51386;53.082;8.816;2024-01-10T08:11:42;17.97;;;12.63;;
64887;SDS011;51386;53.082;8.816;2024-01-10T08:14:11;16.47;;;11.70;;
64887;SDS011;51386;53.082;8.816;2024-01-10T08:16:40;17.50;;;11.97;;
64887;SDS011;51386;53.082;8.816;2024-01-10T08:19:11;18.00;;;12.70;;
64887;SDS011;51386;53.082;8.816;2024-01-10T08:21:39;18.07;;;11.97;;
64887;SDS011;51386;53.082;8.816;2024-01-10T08:24:08;18.77;;;11.67;;
64887;SDS011;51386;53.082;8.816;2024-01-10T08:26:36;24.40;;;14.53;;
64887;SDS011;51386;53.082;8.816;2024-01-10T08:29:05;19.70;;;12.23;;
64887;SDS011;51386;53.082;8.816;2024-01-10T08:31:34;18.33;;;12.17;;
64887;SDS011;51386;53.082;8.816;2024-01-10T08:34:05;20.67;;;14.40;;
64887;SDS011;51386;53.082;8.816;2024-01-10T08:36:51;19.70;;;12.60;;
64887;SDS011;51386;53.082;8.816;2024-01-10T08:39:38;23.20;;;13.50;;
64887;SDS011;51386;53.082;8.816;2024-01-10T08:42:41;17.40;;;11.87;;
64887;SDS011;51386;53.082;8.816;2024-01-10T08:45:24;18.37;;;11.83;;
64887;SDS011;51386;53.082;8.816;2024-01-10T08:47:52;21.40;;;12.07;;
64887;SDS011;51386;53.082;8.816;2024-01-10T08:50:22;20.23;;;12.63;;
64887;SDS011;51386;53.082;8.816;2024-01-10T08:52:50;19.13;;;11.07;;
64887;SDS011;51386;53.082;8.816;2024-01-10T08:55:19;21.50;;;12.37;;
64887;SDS011;51386;53.082;8.816;2024-01-10T08:57:48;19.83;;;11.53;;
64887;SDS011;51386;53.082;8.816;2024-01-10T09:00:23;18.23;;;10.83;;
64887;SDS011;51386;53.082;8.816;2024-01-10T09:02:52;20.63;;;12.30;;
64887;SDS011;51386;53.082;8.816;2024-01-10T09:05:23;22.37;;;12.73;;
64887;SDS011;51386;53.082;8.816;2024-01-10T09:07:56;26.33;;;13.47;;
64887;SDS011;51386;53.082;8.816;2024-01-10T09:10:30;19.17;;;12.23;;
64887;SDS011;51386;53.082;8.816;2024-01-10T09:13:04;24.30;;;13.93;;
64887;SDS011;51386;53.082;8.816;2024-01-10T09:15:39;21.23;;;11.87;;
64887;SDS011;51386;53.082;8.816;2024-01-10T09:18:10;21.53;;;12.60;;
64887;SDS011;51386;53.082;8.816;2024-01-10T09:20:44;39.97;;;21.83;;
64887;SDS011;51386;53.082;8.816;2024-01-10T09:23:32;18.67;;;11.40;;
64887;SDS011;51386;53.082;8.816;2024-01-10T09:26:02;19.23;;;11.43;;
64887;SDS011;51386;53.082;8.816;2024-01-10T09:28:30;26.23;;;15.80;;
64887;SDS011;51386;53.082;8.816;2024-01-10T09:30:59;20.97;;;11.67;;
64887;SDS011;51386;53.082;8.816;2024-01-10T09:33:29;17.90;;;11.67;;
64887;SDS011;51386;53.082;8.816;2024-01-10T09:36:00;19.70;;;11.30;;
64887;SDS011;51386;53.082;8.816;2024-01-10T09:38:39;20.27;;;12.97;;
64887;SDS011;51386;53.082;8.816;2024-01-10T09:41:08;17.93;;;10.70;;
64887;SDS011;51386;53.082;8.816;2024-01-10T09:43:55;18.00;;;10.60;;
64887;SDS011;51386;53.082;8.816;2024-01-10T09:46:40;17.33;;;10.20;;
64887;SDS011;51386;53.082;8.816;2024-01-10T09:49:17;18.87;;;11.60;;
64887;SDS011;51386;53.082;8.816;2024-01-10T09:55:20;18.15;;;12.82;;
64887;SDS011;51386;53.082;8.816;2024-01-10T09:58:01;18.23;;;11.03;;
64887;SDS011;51386;53.082;8.816;2024-01-10T10:00:41;20.67;;;11.00;;
64887;SDS011;51386;53.082;8.816;2024-01-10T10:03:10;16.40;;;10.10;;
64887;SDS011;51386;53.082;8.816;2024-01-10T10:05:40;13.80;;;9.60;;
64887;SDS011;51386;53.082;8.816;2024-01-10T10:08:10;19.33;;;12.47;;
64887;SDS011;51386;53.082;8.816;2024-01-10T10:10:49;15.70;;;10.20;;
64887;SDS011;51386;53.082;8.816;2024-01-10T10:13:28;15.13;;;9.73;;
64887;SDS011;51386;53.082;8.816;2024-01-10T10:15:58;14.30;;;9.67;;
64887;SDS011;51386;53.082;8.816;2024-01-10T10:18:31;17.33;;;10.77;;
64887;SDS011;51386;53.082;8.816;2024-01-10T10:21:17;15.17;;;9.30;;
64887;SDS011;51386;53.082;8.816;2024-01-10T10:23:59;13.20;;;9.30;;
64887;SDS011;51386;53.082;8.816;2024-01-10T10:26:34;13.37;;;9.60;;
64887;SDS011;51386;53.082;8.816;2024-01-10T10:29:02;18.67;;;10.53;;
64887;SDS011;51386;53.082;8.816;2024-01-10T10:31:31;15.97;;;9.07;;
64887;SDS011;51386;53.082;8.816;2024-01-10T10:34:00;15.43;;;9.50;;
64887;SDS011;51386;53.082;8.816;2024-01-10T10:36:30;13.30;;;8.67;;
64887;SDS011;51386;53.082;8.816;2024-01-10T10:38:59;17.50;;;9.73;;
64887;SDS011;51386;53.082;8.816;2024-01-10T10:41:31;12.63;;;9.07;;
64887;SDS011;51386;53.082;8.816;2024-01-10T10:44:00;13.57;;;8.70;;
64887;SDS011;51386;53.082;8.816;2024-01-10T10:46:33;12.93;;;8.67;;
64887;SDS011;51386;53.082;8.816;2024-01-10T10:49:05;13.50;;;8.87;;
64887;SDS011;51386;53.082;8.816;2024-01-10T10:51:40;14.27;;;9.00;;
64887;SDS011;51386;53.082;8.816;2024-01-10T10:54:09;15.37;;;9.60;;
64887;SDS011;51386;53.082;8.816;2024-01-10T10:56:41;14.47;;;10.47;;
64887;SDS011;51386;53.082;8.816;2024-01-10T10:59:12;15.70;;;8.70;;
64887;SDS011;51386;53.082;8.816;2024-01-10T11:01:43;17.13;;;9.67;;
64887;SDS011;51386;53.082;8.816;2024-01-10T11:04:14;17.77;;;9.27;;
64887;SDS011;51386;53.082;8.816;2024-01-10T11:06:43;19.53;;;9.77;;
64887;SDS011;51386;53.082;8.816;2024-01-10T11:09:13;17.87;;;9.70;;
64887;SDS011;51386;53.082;8.816;2024-01-10T11:11:59;15.07;;;8.80;;
64887;SDS011;51386;53.082;8.816;2024-01-10T11:15:29;14.30;;;9.10;;
64887;SDS011;51386;53.082;8.816;2024-01-10T11:19:05;16.67;;;8.33;;
64887;SDS011;51386;53.082;8.816;2024-01-10T11:25:26;14.33;;;8.03;;
64887;SDS011;51386;53.082;8.816;2024-01-10T11:27:57;13.23;;;8.87;;
64887;SDS011;51386;53.082;8.816;2024-01-10T11:30:34;16.30;;;10.27;;
64887;SDS011;51386;53.082;8.816;2024-01-10T11:33:20;15.20;;;8.63;;
64887;SDS011;51386;53.082;8.816;2024-01-10T11:36:17;18.23;;;8.40;;
64887;SDS011;51386;53.082;8.816;2024-01-10T11:41:26;18.17;;;9.30;;
64887;SDS011;51386;53.082;8.816;2024-01-10T11:46:40;16.30;;;10.50;;
64887;SDS011;51386;53.082;8.816;2024-01-10T11:49:14;22.90;;;12.23;;
64887;SDS011;51386;53.082;8.816;2024-01-10T11:51:47;16.03;;;10.13;;
64887;SDS011;51386;53.082;8.816;2024-01-10T11:57:13;14.43;;;8.50;;
64887;SDS011;51386;53.082;8.816;2024-01-10T11:59:44;13.60;;;9.13;;
64887;SDS011;51386;53.082;8.816;2024-01-10T12:02:14;11.53;;;9.07;;
64887;SDS011;51386;53.082;8.816;2024-01-10T12:04:43;14.53;;;10.90;;
64887;SDS011;51386;53.082;8.816;2024-01-10T12:07:15;16.07;;;8.93;;
64887;SDS011;51386;53.082;8.816;2024-01-10T12:09:47;12.27;;;9.60;;
64887;SDS011;51386;53.082;8.816;2024-01-10T12:12:15;13.43;;;9.53;;
64887;SDS011;51386;53.082;8.816;2024-01-10T12:14:44;11.80;;;9.53;;
64887;SDS011;51386;53.082;8.816;2024-01-10T12:17:13;10.77;;;8.30;;
64887;SDS011;51386;53.082;8.816;2024-01-10T12:19:44;11.43;;;8.27;;
64887;SDS011;51386;53.082;8.816;2024-01-10T12:22:13;12.70;;;9.27;;
64887;SDS011;51386;53.082;8.816;2024-01-10T12:24:47;9.73;;;7.53;;
64887;SDS011;51386;53.082;8.816;2024-01-10T12:27:18;12.50;;;8.37;;
64887;SDS011;51386;53.082;8.816;2024-01-10T12:29:50;27.90;;;10.70;;
64887;SDS011;51386;53.082;8.816;2024-01-10T12:32:20;11.23;;;7.50;;
64887;SDS011;51386;53.082;8.816;2024-01-10T12:34:59;12.93;;;8.33;;
64887;SDS011;51386;53.082;8.816;2024-01-10T12:37:32;13.87;;;8.17;;
64887;SDS011;51386;53.082;8.816;2024-01-10T12:40:01;11.03;;;8.20;;
64887;SDS011;51386;53.082;8.816;2024-01-10T12:42:36;11.70;;;7.10;;
64887;SDS011;51386;53.082;8.816;2024-01-10T12:45:05;8.77;;;6.50;;
64887;SDS011;51386;53.082;8.816;2024-01-10T12:47:48;10.30;;;6.97;;
64887;SDS011;51386;53.082;8.816;2024-01-10T12:50:16;12.07;;;7.50;;
64887;SDS011;51386;53.082;8.816;2024-01-10T12:52:45;9.93;;;6.70;;
64887;SDS011;51386;53.082;8.816;2024-01-10T12:55:14;10.53;;;6.70;;
64887;SDS011;51386;53.082;8.816;2024-01-10T12:57:43;8.70;;;6.23;;
64887;SDS011;51386;53.082;8.816;2024-01-10T13:00:12;10.83;;;6.37;;
64887;SDS011;51386;53.082;8.816;2024-01-10T13:02:42;12.83;;;7.27;;
64887;SDS011;51386;53.082;8.816;2024-01-10T13:05:10;15.00;;;8.00;;
64887;SDS011;51386;53.082;8.816;2024-01-10T13:07:39;10.77;;;6.80;;
64887;SDS011;51386;53.082;8.816;2024-01-10T13:10:07;17.03;;;6.43;;
64887;SDS011;51386;53.082;8.816;2024-01-10T13:12:36;9.47;;;6.23;;
64887;SDS011;51386;53.082;8.816;2024-01-10T13:15:05;12.47;;;6.40;;
64887;SDS011;51386;53.082;8.816;2024-01-10T13:17:34;8.93;;;6.07;;
64887;SDS011;51386;53.082;8.816;2024-01-10T13:20:16;10.10;;;5.67;;
64887;SDS011;51386;53.082;8.816;2024-01-10T13:22:44;11.70;;;5.97;;
64887;SDS011;51386;53.082;8.816;2024-01-10T13:25:13;16.47;;;6.23;;
64887;SDS011;51386;53.082;8.816;2024-01-10T13:27:43;11.93;;;6.60;;
64887;SDS011;51386;53.082;8.816;2024-01-10T13:30:11;8.87;;;5.90;;
64887;SDS011;51386;53.082;8.816;2024-01-10T13:32:40;9.43;;;5.63;;
64887;SDS011;51386;53.082;8.816;2024-01-10T13:35:09;9.03;;;5.40;;
64887;SDS011;51386;53.082;8.816;2024-01-10T13:37:46;12.47;;;6.53;;
64887;SDS011;51386;53.082;8.816;2024-01-10T13:40:15;11.17;;;6.07;;
64887;SDS011;51386;53.082;8.816;2024-01-10T13:42:44;16.00;;;6.43;;
64887;SDS011;51386;53.082;8.816;2024-01-10T13:45:12;8.33;;;5.47;;
64887;SDS011;51386;53.082;8.816;2024-01-10T13:47:41;9.43;;;5.90;;
64887;SDS011;51386;53.082;8.816;2024-01-10T13:50:09;43.50;;;17.97;;
64887;SDS011;51386;53.082;8.816;2024-01-10T13:52:38;8.30;;;5.40;;
64887;SDS011;51386;53.082;8.816;2024-01-10T13:55:07;9.53;;;5.23;;
64887;SDS011;51386;53.082;8.816;2024-01-10T13:57:37;9.57;;;5.40;;
64887;SDS011;51386;53.082;8.816;2024-01-10T14:00:05;6.97;;;4.90;;
64887;SDS011;51386;53.082;8.816;2024-01-10T14:02:35;11.87;;;5.50;;
64887;SDS011;51386;53.082;8.816;2024-01-10T14:05:04;7.60;;;5.10;;
64887;SDS011;51386;53.082;8.816;2024-01-10T14:07:33;10.90;;;6.37;;
64887;SDS011;51386;53.082;8.816;2024-01-10T14:10:03;10.73;;;5.90;;
64887;SDS011;51386;53.082;8.816;2024-01-10T14:12:32;17.57;;;6.57;;
64887;SDS011;51386;53.082;8.816;2024-01-10T14:15:01;9.20;;;6.07;;
64887;SDS011;51386;53.082;8.816;2024-01-10T14:17:30;14.77;;;6.10;;
64887;SDS011;51386;53.082;8.816;2024-01-10T14:19:58;9.47;;;5.73;;
64887;SDS011;51386;53.082;8.816;2024-01-10T14:22:26;9.93;;;6.27;;
64887;SDS011;51386;53.082;8.816;2024-01-10T14:24:59;11.60;;;5.60;;
64887;SDS011;51386;53.082;8.816;2024-01-10T14:27:28;10.30;;;5.90;;
64887;SDS011;51386;53.082;8.816;2024-01-10T14:29:57;12.20;;;6.27;;
64887;SDS011;51386;53.082;8.816;2024-01-10T14:32:27;13.93;;;6.57;;
64887;SDS011;51386;53.082;8.816;2024-01-10T14:34:55;9.17;;;6.30;;
64887;SDS011;51386;53.082;8.816;2024-01-10T14:37:25;13.77;;;6.20;;
64887;SDS011;51386;53.082;8.816;2024-01-10T14:39:53;11.03;;;6.90;;
64887;SDS011;51386;53.082;8.816;2024-01-10T14:42:21;10.30;;;6.43;;
64887;SDS011;51386;53.082;8.816;2024-01-10T14:44:50;7.87;;;5.43;;
64887;SDS011;51386;53.082;8.816;2024-01-10T14:47:18;12.07;;;8.10;;
64887;SDS011;51386;53.082;8.816;2024-01-10T14:49:47;10.13;;;6.57;;
64887;SDS011;51386;53.082;8.816;2024-01-10T14:52:16;12.53;;;7.23;;
64887;SDS011;51386;53.082;8.816;2024-01-10T14:54:44;11.30;;;6.77;;
64887;SDS011;51386;53.082;8.816;2024-01-10T14:57:13;10.40;;;6.13;;
64887;SDS011;51386;53.082;8.816;2024-01-10T14:59:41;12.03;;;6.80;;
64887;SDS011;51386;53.082;8.816;2024-01-10T15:02:13;15.37;;;6.60;;